Time;durP1;ratioP1;P1;durP2;ratioP2;P2;SDS_P1;SDS_P2;PMS_P1;PMS_P2;Temp;Humidity;BMP_temperature;BMP_pressure;BME280_temperature;BME280_humidity;BME280_pressure;Samples;Min_cycle;Max_cycle;Signal;HPM_P1;HPM_P2
2023/03/03 00:00:29;;;;;;;61.03;27.17;;;;;;;0.11;100.00;98920.16;5001048;28;20849;-57
2023/03/03 00:03:00;;;;;;;58.60;26.10;;;;;;;0.19;100.00;98924.09;5004811;28;20297;-59
2023/03/03 00:05:27;;;;;;;64.77;27.10;;;;;;;0.23;100.00;98923.88;5003467;28;20221;-58
2023/03/03 00:07:54;;;;;;;57.00;27.03;;;;;;;0.33;100.00;98925.97;5002916;28;20298;-58
2023/03/03 00:10:20;;;;;;;55.90;26.27;;;;;;;0.42;100.00;98921.19;5003196;28;20734;-58
2023/03/03 00:12:48;;;;;;;52.17;25.47;;;;;;;0.44;100.00;98926.25;4999727;28;20240;-57
2023/03/03 00:15:17;;;;;;;54.97;25.27;;;;;;;0.51;100.00;98930.16;5002383;28;20229;-58
2023/03/03 00:17:45;;;;;;;52.93;24.50;;;;;;;0.57;100.00;98929.00;4998945;28;20232;-57
2023/03/03 00:20:29;;;;;;;55.07;25.63;;;;;;;0.69;100.00;98924.94;5003594;28;20630;-58
2023/03/03 00:22:56;;;;;;;56.27;25.93;;;;;;;0.76;100.00;98928.03;5000895;28;21207;-56
2023/03/03 00:25:31;;;;;;;53.30;25.30;;;;;;;0.82;100.00;98927.72;5004205;28;20270;-58
2023/03/03 00:28:01;;;;;;;59.13;25.37;;;;;;;0.88;100.00;98929.97;5002115;28;20240;-58
2023/03/03 00:30:28;;;;;;;54.77;25.70;;;;;;;0.85;100.00;98922.41;4997604;28;20308;-57
2023/03/03 00:32:56;;;;;;;54.93;25.73;;;;;;;0.88;100.00;98922.25;5002973;28;20255;-57
2023/03/03 00:35:26;;;;;;;54.60;25.80;;;;;;;0.87;100.00;98916.28;5001397;28;20229;-58
2023/03/03 00:37:56;;;;;;;53.17;24.50;;;;;;;0.88;100.00;98922.25;5000410;28;20240;-58
2023/03/03 00:40:24;;;;;;;52.97;26.93;;;;;;;0.87;100.00;98915.47;5002211;28;20624;-58
2023/03/03 00:42:53;;;;;;;52.43;24.77;;;;;;;0.80;100.00;98924.41;5001605;28;20576;-58
2023/03/03 00:45:33;;;;;;;56.40;25.90;;;;;;;0.77;100.00;98924.56;5017896;28;20603;-58
2023/03/03 00:48:14;;;;;;;56.77;24.60;;;;;;;0.73;100.00;98917.03;5001756;28;20224;-59
2023/03/03 00:50:44;;;;;;;52.77;24.13;;;;;;;0.65;100.00;98916.59;5000742;28;20243;-58
2023/03/03 00:53:13;;;;;;;49.33;22.40;;;;;;;0.65;100.00;98913.19;5000663;28;20228;-57
2023/03/03 00:55:40;;;;;;;48.53;22.80;;;;;;;0.58;100.00;98916.06;5010811;28;20314;-57
2023/03/03 00:58:07;;;;;;;52.13;22.77;;;;;;;0.54;100.00;98918.88;5001226;28;20220;-59
2023/03/03 01:00:40;;;;;;;49.60;22.90;;;;;;;0.50;100.00;98909.69;4996683;28;20227;-58
2023/03/03 01:03:13;;;;;;;55.50;24.77;;;;;;;0.49;100.00;98919.13;5012162;28;20627;-58
2023/03/03 01:05:40;;;;;;;50.03;23.23;;;;;;;0.46;100.00;98914.16;4996183;28;20220;-58
2023/03/03 01:08:07;;;;;;;58.50;25.10;;;;;;;0.48;100.00;98919.19;4998629;28;20276;-58
2023/03/03 01:10:37;;;;;;;51.40;24.67;;;;;;;0.44;100.00;98918.53;4997844;28;20228;-58
2023/03/03 01:13:04;;;;;;;52.47;24.33;;;;;;;0.36;100.00;98915.53;4998841;28;20224;-58
2023/03/03 01:15:31;;;;;;;55.30;24.97;;;;;;;0.30;100.00;98914.09;4997348;28;20579;-58
2023/03/03 01:17:58;;;;;;;49.37;24.17;;;;;;;0.26;100.00;98913.44;5000045;28;20696;-59
2023/03/03 01:20:26;;;;;;;50.03;24.80;;;;;;;0.24;100.00;98907.56;5001815;28;20259;-59
2023/03/03 01:22:53;;;;;;;54.63;24.53;;;;;;;0.27;100.00;98911.69;4985402;28;20711;-58
2023/03/03 01:25:19;;;;;;;52.30;25.47;;;;;;;0.27;100.00;98914.25;5005717;28;20236;-56
2023/03/03 01:27:46;;;;;;;56.70;24.87;;;;;;;0.28;100.00;98918.50;5003487;28;20228;-60
2023/03/03 01:30:13;;;;;;;55.57;24.83;;;;;;;0.19;100.00;98916.38;5004555;28;20224;-58
2023/03/03 01:32:40;;;;;;;53.30;24.67;;;;;;;0.06;100.00;98909.28;5000852;28;20232;-59
2023/03/03 01:35:07;;;;;;;52.43;23.80;;;;;;;-0.01;100.00;98907.97;5006089;28;20246;-58
2023/03/03 01:37:35;;;;;;;53.07;25.40;;;;;;;-0.05;100.00;98911.59;5003971;28;20216;-59
2023/03/03 01:40:03;;;;;;;53.73;24.60;;;;;;;-0.10;100.00;98905.88;5004008;28;20306;-58
2023/03/03 01:42:30;;;;;;;54.90;25.23;;;;;;;-0.17;100.00;98905.31;5001856;28;20233;-58
2023/03/03 01:45:19;;;;;;;58.93;25.47;;;;;;;-0.20;100.00;98901.19;5005719;28;20236;-57
2023/03/03 01:47:51;;;;;;;60.40;26.33;;;;;;;-0.24;100.00;98904.81;5002339;28;20220;-58
2023/03/03 01:50:27;;;;;;;57.33;24.97;;;;;;;-0.23;100.00;98903.91;5006061;28;20220;-59
2023/03/03 01:52:57;;;;;;;53.77;24.93;;;;;;;-0.34;100.00;98906.16;5018369;28;20238;-58
2023/03/03 01:55:29;;;;;;;56.93;24.80;;;;;;;-0.36;100.00;98898.53;5005818;28;20219;-58
2023/03/03 01:58:01;;;;;;;55.43;25.10;;;;;;;-0.35;100.00;98901.94;5003030;28;20231;-58
2023/03/03 02:00:29;;;;;;;58.90;24.90;;;;;;;-0.26;100.00;98905.78;5006182;28;20228;-58
2023/03/03 02:02:56;;;;;;;56.93;25.80;;;;;;;-0.27;100.00;98891.28;5003055;28;20244;-58
2023/03/03 02:05:23;;;;;;;56.73;25.10;;;;;;;-0.33;100.00;98884.72;5004630;28;20220;-59
2023/03/03 02:07:51;;;;;;;54.30;25.00;;;;;;;-0.39;100.00;98880.72;5003490;28;20227;-59
2023/03/03 02:10:21;;;;;;;52.87;24.87;;;;;;;-0.40;100.00;98881.63;5006620;28;20869;-58
2023/03/03 02:12:50;;;;;;;54.17;24.93;;;;;;;-0.34;100.00;98883.06;5002215;28;20236;-58
2023/03/03 02:15:22;;;;;;;52.20;23.70;;;;;;;-0.41;100.00;98876.59;5005014;28;20236;-58
2023/03/03 02:17:51;;;;;;;57.87;25.00;;;;;;;-0.51;100.00;98876.19;5018303;28;20968;-58
2023/03/03 02:20:28;;;;;;;57.90;23.50;;;;;;;-0.54;100.00;98873.78;4995170;28;20224;-58
2023/03/03 02:23:02;;;;;;;50.93;24.13;;;;;;;-0.58;100.00;98873.09;5002302;28;20243;-59
2023/03/03 02:25:36;;;;;;;51.90;23.47;;;;;;;-0.56;100.00;98867.91;5002230;28;20228;-58
2023/03/03 02:28:04;;;;;;;60.57;25.70;;;;;;;-0.65;100.00;98864.03;5005317;28;20223;-58
2023/03/03 02:30:38;;;;;;;53.57;23.73;;;;;;;-0.76;100.00;98862.81;5002373;28;20220;-59
2023/03/03 02:33:05;;;;;;;52.23;23.97;;;;;;;-0.76;100.00;98865.38;5003110;28;20232;-57
2023/03/03 02:35:33;;;;;;;50.10;23.93;;;;;;;-0.77;100.00;98873.16;5002674;28;20282;-59
2023/03/03 02:38:09;;;;;;;54.63;23.60;;;;;;;-0.84;100.00;98871.78;5004453;28;20302;-58
2023/03/03 02:40:40;;;;;;;53.27;24.47;;;;;;;-0.87;100.00;98872.75;5002979;28;20219;-56
2023/03/03 02:43:11;;;;;;;50.77;23.63;;;;;;;-0.93;100.00;98883.28;5005316;28;20721;-59
2023/03/03 02:45:43;;;;;;;57.10;24.33;;;;;;;-1.02;100.00;98876.88;5002306;28;20219;-58
2023/03/03 02:48:10;;;;;;;56.03;26.50;;;;;;;-1.00;100.00;98875.06;5003092;28;20688;-56
2023/03/03 02:50:38;;;;;;;58.97;25.77;;;;;;;-0.95;100.00;98880.81;5000953;28;20283;-59
2023/03/03 02:53:04;;;;;;;60.70;25.07;;;;;;;-0.99;100.00;98879.28;5004292;28;20600;-58
2023/03/03 02:55:31;;;;;;;57.53;26.53;;;;;;;-1.07;100.00;98887.34;4999491;28;20781;-59
2023/03/03 02:57:58;;;;;;;55.73;25.33;;;;;;;-1.14;100.00;98885.97;5004402;28;20242;-56
2023/03/03 03:00:26;;;;;;;53.93;24.60;;;;;;;-1.04;100.00;98886.34;5004910;28;20310;-58
2023/03/03 03:02:53;;;;;;;58.20;25.07;;;;;;;-1.01;100.00;98893.06;4992541;28;20247;-58
2023/03/03 03:05:20;;;;;;;64.93;26.30;;;;;;;-1.03;100.00;98885.47;5003549;28;20278;-60
2023/03/03 03:07:46;;;;;;;59.73;24.80;;;;;;;-1.02;100.00;98888.84;5002289;28;20235;-60
2023/03/03 03:10:14;;;;;;;56.90;24.90;;;;;;;-0.99;100.00;98891.25;5003769;28;20247;-59
2023/03/03 03:12:43;;;;;;;60.00;26.07;;;;;;;-0.92;100.00;98892.63;5002759;28;20243;-60
2023/03/03 03:15:11;;;;;;;62.47;25.87;;;;;;;-0.91;100.00;98894.28;5000418;28;20751;-59
2023/03/03 03:17:39;;;;;;;55.30;25.67;;;;;;;-0.90;100.00;98889.13;5000576;28;20220;-57
2023/03/03 03:20:07;;;;;;;61.70;25.30;;;;;;;-0.90;100.00;98880.56;5002712;28;20227;-58
2023/03/03 03:22:34;;;;;;;59.83;26.03;;;;;;;-0.71;100.00;98887.41;4994100;28;20260;-58
2023/03/03 03:25:01;;;;;;;61.40;26.23;;;;;;;-0.63;100.00;98898.97;5012656;28;20374;-59
2023/03/03 03:27:29;;;;;;;56.47;25.70;;;;;;;-0.64;100.00;98897.31;4989983;28;20561;-60
2023/03/03 03:29:56;;;;;;;55.00;24.73;;;;;;;-0.62;100.00;98903.19;5003162;28;20318;-58
2023/03/03 03:32:23;;;;;;;58.90;25.93;;;;;;;-0.48;100.00;98894.00;5002819;28;20583;-59
2023/03/03 03:34:51;;;;;;;62.00;25.63;;;;;;;-0.43;100.00;98894.59;4999803;28;20235;-59
2023/03/03 03:37:20;;;;;;;56.50;24.63;;;;;;;-0.42;100.00;98896.25;5019023;28;20217;-58
2023/03/03 03:39:47;;;;;;;56.33;25.00;;;;;;;-0.38;100.00;98897.78;4998243;28;20227;-55
2023/03/03 03:42:14;;;;;;;67.73;26.47;;;;;;;-0.31;100.00;98893.19;4997663;28;20231;-59
2023/03/03 03:44:41;;;;;;;54.80;25.80;;;;;;;-0.22;100.00;98900.44;5000209;28;20703;-59
2023/03/03 03:47:08;;;;;;;57.33;25.03;;;;;;;-0.10;100.00;98904.13;5018832;28;21185;-58
2023/03/03 03:49:35;;;;;;;53.87;24.13;;;;;;;-0.04;100.00;98905.56;5016739;28;20220;-58
2023/03/03 03:52:04;;;;;;;56.83;24.20;;;;;;;-0.04;100.00;98913.25;5003596;28;20267;-59
2023/03/03 03:54:32;;;;;;;55.23;25.33;;;;;;;-0.02;100.00;98911.44;5001219;28;20216;-58
2023/03/03 03:56:59;;;;;;;48.80;24.40;;;;;;;0.00;100.00;98912.19;5004997;28;20244;-58
2023/03/03 03:59:26;;;;;;;52.23;24.73;;;;;;;0.00;100.00;98909.63;5003971;28;20255;-59
2023/03/03 04:04:36;;;;;;;55.23;24.27;;;;;;;0.01;100.00;98913.00;5432848;23;20221;-59
2023/03/03 04:07:04;;;;;;;55.50;24.90;;;;;;;0.01;100.00;98913.81;4961832;28;20716;-58
2023/03/03 04:09:30;;;;;;;57.33;24.67;;;;;;;-0.02;100.00;98919.97;4961803;28;20221;-59
2023/03/03 04:11:57;;;;;;;54.63;24.57;;;;;;;-0.02;100.00;98916.56;4964041;28;20645;-58
2023/03/03 04:14:24;;;;;;;50.77;24.23;;;;;;;-0.04;100.00;98913.25;4964914;28;20226;-58
2023/03/03 04:16:51;;;;;;;47.47;22.90;;;;;;;-0.06;100.00;98910.75;4954524;28;20674;-58
2023/03/03 04:19:18;;;;;;;54.20;24.63;;;;;;;-0.08;100.00;98904.06;4964280;28;20311;-60
2023/03/03 04:21:44;;;;;;;53.80;24.17;;;;;;;-0.09;100.00;98912.66;4962420;28;20248;-59
2023/03/03 04:24:13;;;;;;;59.60;25.27;;;;;;;-0.11;100.00;98904.19;4980186;28;20240;-59
2023/03/03 04:26:39;;;;;;;52.27;24.50;;;;;;;-0.17;100.00;98908.72;4961305;28;20233;-60
2023/03/03 04:29:06;;;;;;;51.57;24.67;;;;;;;-0.18;100.00;98909.63;4979240;28;20243;-60
2023/03/03 04:31:33;;;;;;;50.83;24.20;;;;;;;-0.10;100.00;98908.44;5221717;23;20233;-60
2023/03/03 04:34:00;;;;;;;56.03;23.80;;;;;;;-0.12;100.00;98905.94;4968170;28;20586;-58
2023/03/03 04:36:28;;;;;;;53.63;23.33;;;;;;;-0.19;100.00;98907.97;4958720;28;20222;-59
2023/03/03 04:38:55;;;;;;;54.93;24.57;;;;;;;-0.22;100.00;98902.16;4945079;29;20258;-58
2023/03/03 04:41:23;;;;;;;53.47;24.97;;;;;;;-0.26;100.00;98911.75;4948853;28;20296;-57
2023/03/03 04:43:50;;;;;;;53.17;23.53;;;;;;;-0.18;100.00;98911.34;4936524;28;21179;-59
2023/03/03 04:46:17;;;;;;;55.50;23.70;;;;;;;-0.12;100.00;98910.25;4917458;29;20574;-59
2023/03/03 04:48:43;;;;;;;53.43;24.23;;;;;;;-0.09;100.00;98907.53;4958789;28;20232;-59
2023/03/03 04:51:11;;;;;;;55.00;23.70;;;;;;;-0.06;100.00;98908.19;4977089;28;21756;-58
2023/03/03 04:53:38;;;;;;;50.57;23.27;;;;;;;-0.04;100.00;98910.69;4961118;28;20855;-58
2023/03/03 04:56:07;;;;;;;49.70;23.23;;;;;;;0.03;100.00;98909.44;4963536;28;20241;-58
2023/03/03 04:58:35;;;;;;;50.30;23.50;;;;;;;0.09;100.00;98906.56;4965593;28;20229;-57
2023/03/03 05:01:03;;;;;;;50.37;22.33;;;;;;;0.23;100.00;98912.75;4967670;28;20234;-57
2023/03/03 05:03:32;;;;;;;50.40;22.60;;;;;;;0.30;100.00;98921.81;4978194;28;20214;-58
2023/03/03 05:05:59;;;;;;;53.23;25.23;;;;;;;0.32;100.00;98922.56;4982194;28;20292;-57
2023/03/03 05:08:26;;;;;;;49.17;23.37;;;;;;;0.36;100.00;98929.19;4968687;28;20230;-58
2023/03/03 05:10:53;;;;;;;52.10;24.07;;;;;;;0.38;100.00;98922.25;4953781;28;20693;-57
2023/03/03 05:13:20;;;;;;;58.87;24.23;;;;;;;0.42;100.00;98930.63;4963950;28;20237;-59
2023/03/03 05:15:51;;;;;;;49.40;23.43;;;;;;;0.47;100.00;98927.81;4964999;28;20227;-59
2023/03/03 05:18:18;;;;;;;50.73;23.80;;;;;;;0.46;100.00;98934.72;4968434;28;20307;-58
2023/03/03 05:20:45;;;;;;;52.00;25.00;;;;;;;0.50;100.00;98933.66;4966058;28;20234;-58
2023/03/03 05:23:12;;;;;;;57.53;27.43;;;;;;;0.55;100.00;98936.78;4968127;28;20245;-58
2023/03/03 05:25:40;;;;;;;52.93;25.73;;;;;;;0.62;100.00;98936.47;4957784;28;20234;-59
2023/03/03 05:28:07;;;;;;;55.50;27.27;;;;;;;0.66;100.00;98932.81;4966891;28;20229;-58
2023/03/03 05:30:33;;;;;;;53.30;26.20;;;;;;;0.70;100.00;98935.16;4963804;28;20233;-58
2023/03/03 05:33:01;;;;;;;56.63;25.47;;;;;;;0.73;100.00;98931.59;4966539;28;20697;-59
2023/03/03 05:35:28;;;;;;;60.30;28.40;;;;;;;0.74;100.00;98933.25;4960253;28;20222;-56
2023/03/03 05:37:56;;;;;;;54.57;27.73;;;;;;;0.75;100.00;98924.63;4966150;28;20302;-57
2023/03/03 05:40:24;;;;;;;56.47;25.20;;;;;;;0.77;100.00;98929.69;4968064;28;20232;-58
2023/03/03 05:42:51;;;;;;;54.27;24.70;;;;;;;0.80;100.00;98932.94;4965579;28;20237;-57
2023/03/03 05:45:19;;;;;;;53.43;24.57;;;;;;;0.76;100.00;98939.13;4968365;28;20326;-57
2023/03/03 05:47:45;;;;;;;49.27;23.87;;;;;;;0.80;100.00;98935.50;4963184;28;20822;-57
2023/03/03 05:50:14;;;;;;;56.97;25.40;;;;;;;0.84;100.00;98936.19;4948121;28;20235;-58
2023/03/03 05:52:40;;;;;;;58.17;25.70;;;;;;;0.85;100.00;98940.41;4963924;28;20231;-57
2023/03/03 05:55:08;;;;;;;53.83;25.70;;;;;;;0.89;100.00;98941.91;4967624;28;20593;-58
2023/03/03 05:57:34;;;;;;;52.53;24.70;;;;;;;0.92;100.00;98946.88;4964556;28;20285;-57
2023/03/03 06:00:02;;;;;;;55.87;25.97;;;;;;;0.92;100.00;98952.03;4968191;28;20302;-58
2023/03/03 06:02:38;;;;;;;56.47;25.43;;;;;;;0.92;100.00;98957.16;4962283;28;20226;-57
2023/03/03 06:05:07;;;;;;;52.80;24.37;;;;;;;0.93;100.00;98952.84;4967271;28;20222;-58
2023/03/03 06:07:35;;;;;;;56.57;26.20;;;;;;;0.94;100.00;98954.50;4964246;28;20292;-57
2023/03/03 06:10:01;;;;;;;53.87;24.90;;;;;;;0.94;100.00;98959.63;4965476;28;20230;-57
2023/03/03 06:12:30;;;;;;;53.23;25.30;;;;;;;0.94;100.00;98972.50;4963670;28;20229;-58
2023/03/03 06:14:57;;;;;;;51.97;24.10;;;;;;;0.96;100.00;98966.38;4964797;28;20236;-57
2023/03/03 06:17:24;;;;;;;52.60;25.13;;;;;;;0.97;100.00;98962.03;4968169;28;20245;-54
2023/03/03 06:19:50;;;;;;;52.67;25.73;;;;;;;1.00;100.00;98972.16;4963876;28;20296;-55
2023/03/03 06:22:19;;;;;;;57.30;28.73;;;;;;;1.03;100.00;98965.13;4966654;28;20943;-58
2023/03/03 06:24:47;;;;;;;53.73;26.10;;;;;;;1.06;100.00;98973.59;4952863;28;20238;-57
2023/03/03 06:27:14;;;;;;;53.93;26.03;;;;;;;1.09;100.00;98976.81;4959889;28;20238;-58
2023/03/03 06:29:40;;;;;;;54.83;25.00;;;;;;;1.10;100.00;98981.06;4962801;28;20234;-58
2023/03/03 06:32:07;;;;;;;52.70;24.40;;;;;;;1.13;100.00;98980.03;4958018;28;20292;-57
2023/03/03 06:34:33;;;;;;;55.77;26.07;;;;;;;1.14;100.00;98987.69;4955676;28;20230;-58
2023/03/03 06:37:00;;;;;;;53.77;25.73;;;;;;;1.20;100.00;98988.28;4962723;28;20249;-57
2023/03/03 06:39:27;;;;;;;56.07;25.67;;;;;;;1.18;100.00;98985.78;4967409;28;20239;-58
2023/03/03 06:41:55;;;;;;;47.60;24.77;;;;;;;1.26;100.00;98993.91;4964550;28;20241;-57
2023/03/03 06:44:21;;;;;;;58.57;26.63;;;;;;;1.29;100.00;98985.22;4964672;28;20226;-57
2023/03/03 06:46:49;;;;;;;56.10;27.23;;;;;;;1.29;100.00;98990.34;4964785;28;20234;-57
2023/03/03 06:49:16;;;;;;;62.10;27.30;;;;;;;1.33;100.00;98987.53;4966262;28;20230;-58
2023/03/03 06:51:44;;;;;;;53.37;26.90;;;;;;;1.40;100.00;99000.06;4965102;28;20245;-58
2023/03/03 06:54:13;;;;;;;56.10;26.60;;;;;;;1.45;100.00;99000.63;4980141;28;20705;-55
2023/03/03 06:56:40;;;;;;;54.77;26.13;;;;;;;1.50;100.00;99008.13;4963336;28;20237;-57
2023/03/03 06:59:13;;;;;;;51.57;25.70;;;;;;;1.55;100.00;99009.50;4967767;28;20230;-57
2023/03/03 07:01:40;;;;;;;56.35;28.27;;;;;;;1.56;100.00;99013.75;4964715;28;20452;-57
2023/03/03 07:04:27;;;;;;;57.83;28.87;;;;;;;1.59;100.00;99011.00;4964541;28;20246;-59
2023/03/03 07:06:54;;;;;;;57.27;26.63;;;;;;;1.67;100.00;99020.06;4964103;28;20234;-58
2023/03/03 07:09:23;;;;;;;60.40;28.67;;;;;;;1.70;100.00;99010.41;4965736;28;20257;-57
2023/03/03 07:11:50;;;;;;;61.13;29.13;;;;;;;1.77;100.00;99018.63;4963397;28;20246;-58
2023/03/03 07:14:19;;;;;;;60.00;27.50;;;;;;;1.84;100.00;99019.94;4964946;28;20229;-57
2023/03/03 07:16:46;;;;;;;60.10;27.57;;;;;;;1.95;100.00;99018.53;4963645;28;20885;-59
2023/03/03 07:19:19;;;;;;;61.60;29.07;;;;;;;2.00;100.00;99029.41;4964396;28;20718;-58
2023/03/03 07:21:46;;;;;;;64.15;32.00;;;;;;;2.08;100.00;99016.91;4961331;28;20450;-57
2023/03/03 07:24:22;;;;;;;63.60;30.83;;;;;;;2.14;100.00;99013.97;4960938;28;20241;-59
2023/03/03 07:26:49;;;;;;;69.00;33.93;;;;;;;2.18;100.00;99022.34;4963497;28;20299;-58
2023/03/03 07:29:24;;;;;;;60.77;31.13;;;;;;;2.22;100.00;99024.66;4966706;28;20292;-58
2023/03/03 07:31:51;;;;;;;60.20;30.77;;;;;;;2.30;100.00;99029.38;4963750;28;20241;-58
2023/03/03 07:34:21;;;;;;;65.67;32.97;;;;;;;2.42;100.00;99027.03;4965242;28;20704;-58
2023/03/03 07:36:49;;;;;;;65.07;32.33;;;;;;;2.39;100.00;99030.59;4964546;28;20230;-57
2023/03/03 07:39:33;;;;;;;70.63;33.90;;;;;;;2.38;97.92;99028.13;4967219;28;20234;-57
2023/03/03 07:42:12;;;;;;;65.13;32.40;;;;;;;2.46;97.33;99042.19;4964767;28;20328;-58
2023/03/03 07:44:40;;;;;;;67.30;34.17;;;;;;;2.21;97.49;99041.03;4955769;28;20613;-58
2023/03/03 07:47:22;;;;;;;68.57;33.70;;;;;;;2.28;98.28;99048.41;4981087;28;20664;-57
2023/03/03 07:49:51;;;;;;;67.57;33.43;;;;;;;2.25;98.37;99056.31;4963068;28;20325;-57
2023/03/03 07:52:32;;;;;;;70.83;31.60;;;;;;;2.32;97.83;99045.59;4966587;28;20835;-58
2023/03/03 07:55:01;;;;;;;67.67;32.40;;;;;;;2.41;98.79;99049.38;4963601;28;20233;-58
2023/03/03 07:57:35;;;;;;;63.70;33.20;;;;;;;2.50;96.98;99051.41;4966279;28;20293;-59
2023/03/03 08:00:42;;;;;;;72.03;35.17;;;;;;;2.64;96.35;99049.78;4964040;28;20704;-58
2023/03/03 08:03:16;;;;;;;60.07;30.43;;;;;;;2.72;94.54;99057.91;4963787;28;20241;-57
2023/03/03 08:05:44;;;;;;;68.40;32.23;;;;;;;2.72;94.29;99055.31;4962553;28;20566;-57
2023/03/03 08:08:29;;;;;;;60.37;29.90;;;;;;;2.60;93.25;99053.47;4966451;28;20225;-58
2023/03/03 08:10:57;;;;;;;66.17;32.50;;;;;;;2.49;93.99;99057.50;4963161;28;20241;-58
2023/03/03 08:13:30;;;;;;;62.93;31.90;;;;;;;2.54;94.67;99064.97;4966280;28;20241;-58
2023/03/03 08:16:02;;;;;;;60.93;32.17;;;;;;;2.66;94.00;99060.84;4964091;28;20244;-57
2023/03/03 08:18:34;;;;;;;68.60;33.53;;;;;;;2.72;94.96;99060.47;4966293;28;20585;-57
2023/03/03 08:21:02;;;;;;;66.37;33.47;;;;;;;2.91;94.52;99062.78;4964018;28;20233;-57
2023/03/03 08:23:29;;;;;;;71.38;41.20;;;;;;;3.10;93.98;99062.53;4962053;28;20442;-58
2023/03/03 08:25:56;;;;;;;66.23;36.83;;;;;;;3.26;92.90;99069.31;4965902;28;20241;-58
2023/03/03 08:28:22;;;;;;;67.93;34.60;;;;;;;3.24;90.90;99077.16;4965467;28;20289;-57
2023/03/03 08:30:50;;;;;;;69.30;33.93;;;;;;;3.31;90.20;99080.19;4961287;28;20256;-58
2023/03/03 08:33:18;;;;;;;65.97;34.80;;;;;;;3.20;90.01;99083.44;4964096;28;20227;-58
2023/03/03 08:35:45;;;;;;;81.73;39.77;;;;;;;3.10;90.01;99072.00;4962181;28;20677;-58
2023/03/03 08:38:13;;;;;;;72.33;37.13;;;;;;;3.09;91.54;99085.81;4965595;28;20225;-58
2023/03/03 08:40:40;;;;;;;74.10;35.33;;;;;;;3.17;91.61;99075.06;4961293;28;20217;-58
2023/03/03 08:43:07;;;;;;;70.90;36.27;;;;;;;3.32;90.80;99084.44;4962193;28;20230;-58
2023/03/03 08:45:35;;;;;;;69.73;34.37;;;;;;;3.51;90.56;99080.72;4961759;28;20256;-58
2023/03/03 08:48:02;;;;;;;66.90;34.57;;;;;;;3.68;90.05;99080.53;4964919;28;20292;-58
2023/03/03 08:50:31;;;;;;;69.07;34.87;;;;;;;3.65;88.22;99082.47;4965494;28;20232;-58
2023/03/03 08:52:58;;;;;;;77.80;36.80;;;;;;;3.83;89.25;99076.13;4959186;28;20308;-57
2023/03/03 08:55:24;;;;;;;77.30;39.67;;;;;;;4.05;87.60;99081.72;4961319;28;20226;-58
2023/03/03 08:57:51;;;;;;;69.53;37.07;;;;;;;4.19;85.80;99079.09;4961325;28;20237;-58
2023/03/03 09:00:18;;;;;;;73.47;38.00;;;;;;;4.16;85.03;99070.69;4964369;28;20230;-57
2023/03/03 09:02:45;;;;;;;71.47;36.37;;;;;;;4.03;85.84;99068.88;4961146;28;20705;-57
2023/03/03 09:05:12;;;;;;;388.43;117.00;;;;;;;4.09;86.04;99075.44;4962530;28;20714;-58
2023/03/03 09:07:41;;;;;;;70.03;36.50;;;;;;;4.10;85.33;99064.16;4962210;28;20278;-58
2023/03/03 09:10:09;;;;;;;75.37;38.13;;;;;;;4.20;84.82;99064.41;4962533;28;20639;-59
2023/03/03 09:12:39;;;;;;;79.17;37.07;;;;;;;4.22;86.08;99059.94;4962293;28;20600;-59
2023/03/03 09:15:16;;;;;;;69.93;35.37;;;;;;;4.27;85.17;99069.06;4961212;28;20568;-58
2023/03/03 09:17:43;;;;;;;66.83;34.27;;;;;;;4.35;85.36;99065.13;4960982;28;20252;-59
2023/03/03 09:20:27;;;;;;;67.13;34.17;;;;;;;4.33;85.54;99073.00;4963505;28;20240;-59
2023/03/03 09:22:55;;;;;;;63.07;33.77;;;;;;;4.30;83.48;99075.78;4958919;28;20593;-58
2023/03/03 09:25:27;;;;;;;71.70;35.17;;;;;;;4.31;83.18;99077.44;4964778;28;20218;-58
2023/03/03 09:27:54;;;;;;;69.27;35.50;;;;;;;4.27;82.75;99088.91;4961458;28;20234;-59
2023/03/03 09:30:36;;;;;;;61.50;32.63;;;;;;;4.39;81.14;99087.28;4965111;28;20245;-59
2023/03/03 09:33:20;;;;;;;71.13;36.80;;;;;;;4.36;82.84;99095.22;4961016;28;20328;-58
2023/03/03 09:35:51;;;;;;;63.13;32.07;;;;;;;4.57;80.27;99100.78;4958875;28;20276;-58
2023/03/03 09:38:26;;;;;;;58.03;30.93;;;;;;;4.67;80.87;99106.16;4965506;28;20234;-58
2023/03/03 09:41:18;;;;;;;68.77;35.60;;;;;;;4.86;79.60;99106.59;4963244;28;20237;-59
2023/03/03 09:43:56;;;;;;;62.23;31.60;;;;;;;4.95;78.26;99112.09;4962797;28;20221;-58
2023/03/03 09:46:30;;;;;;;62.77;31.20;;;;;;;4.76;79.17;99109.91;4967286;28;20233;-59
2023/03/03 09:49:07;;;;;;;66.17;33.60;;;;;;;4.83;76.54;99116.31;4965609;28;20624;-59
2023/03/03 09:51:47;;;;;;;65.20;32.20;;;;;;;4.84;79.54;99123.97;4962311;28;20697;-59
2023/03/03 09:54:27;;;;;;;66.53;32.47;;;;;;;5.01;76.97;99124.63;4966001;28;20222;-58
2023/03/03 09:57:04;;;;;;;63.90;33.07;;;;;;;5.12;78.41;99129.91;4964479;28;20292;-57
2023/03/03 09:59:41;;;;;;;62.77;32.03;;;;;;;4.87;76.96;99122.94;4964884;28;20388;-59
2023/03/03 10:02:26;;;;;;;60.30;30.93;;;;;;;4.70;77.88;99121.47;4963088;28;20221;-58
2023/03/03 10:05:12;;;;;;;64.00;31.43;;;;;;;4.31;80.42;99113.63;4963215;28;20237;-59
2023/03/03 10:07:47;;;;;;;68.87;34.67;;;;;;;4.09;81.71;99117.59;4964472;28;20233;-58
2023/03/03 10:10:36;;;;;;;77.20;36.57;;;;;;;4.19;82.57;99115.25;4966230;28;20237;-58
2023/03/03 10:13:18;;;;;;;64.60;32.77;;;;;;;4.35;81.61;99116.84;4957896;28;20233;-58
2023/03/03 10:15:55;;;;;;;65.53;32.93;;;;;;;4.26;80.76;99113.91;4965072;28;20229;-58
2023/03/03 10:18:32;;;;;;;69.10;34.47;;;;;;;4.07;82.68;99116.03;4960805;28;20763;-57
2023/03/03 10:21:09;;;;;;;71.60;35.07;;;;;;;4.03;84.38;99114.56;4959647;28;20839;-57
2023/03/03 10:23:51;;;;;;;62.53;31.90;;;;;;;3.99;83.12;99111.34;4962900;28;20267;-58
2023/03/03 10:26:29;;;;;;;69.80;33.40;;;;;;;4.08;83.08;99109.94;4967623;28;20238;-58
2023/03/03 10:29:22;;;;;;;65.73;33.00;;;;;;;4.13;82.72;99113.88;4963586;28;20573;-57
2023/03/03 10:32:03;;;;;;;69.83;33.90;;;;;;;4.25;84.77;99111.44;4960556;28;20234;-58
2023/03/03 10:34:49;;;;;;;69.40;33.23;;;;;;;4.45;82.82;99115.31;4963973;28;20284;-59
2023/03/03 10:37:24;;;;;;;61.93;31.83;;;;;;;4.46;82.35;99108.41;4967389;28;20267;-57
2023/03/03 10:40:04;;;;;;;70.20;34.90;;;;;;;4.44;84.62;99100.72;4964797;28;20249;-59
2023/03/03 10:42:50;;;;;;;69.40;35.83;;;;;;;4.61;82.51;99109.16;4962820;28;20241;-57
2023/03/03 10:45:35;;;;;;;73.07;33.67;;;;;;;5.06;81.65;99117.38;4967566;23;20241;-63
2023/03/03 10:48:14;;;;;;;72.27;36.13;;;;;;;4.99;80.63;99123.88;4961204;28;20288;-63
2023/03/03 10:50:50;;;;;;;68.43;34.90;;;;;;;5.23;79.71;99120.59;4964839;28;20232;-63
2023/03/03 10:53:22;;;;;;;67.43;33.07;;;;;;;5.44;79.43;99123.44;4965014;28;20217;-63
2023/03/03 10:56:02;;;;;;;63.03;33.43;;;;;;;5.44;79.99;99121.69;4964163;28;22974;-62
2023/03/03 10:58:51;;;;;;;63.47;31.77;;;;;;;5.74;79.01;99128.25;4966737;28;20747;-62
2023/03/03 11:01:29;;;;;;;65.03;34.20;;;;;;;5.84;77.40;99117.25;4963615;28;20240;-62
2023/03/03 11:04:13;;;;;;;68.07;34.87;;;;;;;5.83;76.33;99118.19;4963965;28;20233;-62
2023/03/03 11:06:51;;;;;;;67.53;34.60;;;;;;;5.64;77.90;99122.06;4963830;28;20232;-62
2023/03/03 11:09:31;;;;;;;71.13;34.80;;;;;;;5.53;77.67;99114.22;4965031;28;20620;-62
2023/03/03 11:12:08;;;;;;;65.10;33.63;;;;;;;5.60;77.92;99120.63;4964086;28;20241;-62
2023/03/03 11:14:46;;;;;;;70.47;35.23;;;;;;;5.89;77.58;99112.56;4963781;28;20701;-62
2023/03/03 11:17:19;;;;;;;62.03;32.33;;;;;;;5.87;77.12;99114.44;4966286;28;20222;-62
2023/03/03 11:19:59;;;;;;;65.67;34.50;;;;;;;5.54;77.06;99113.28;4953411;28;20222;-62
2023/03/03 11:22:38;;;;;;;62.50;32.53;;;;;;;5.52;76.49;99115.97;4966370;28;20257;-62
2023/03/03 11:25:26;;;;;;;66.47;34.10;;;;;;;5.36;76.94;99110.22;4962542;28;20324;-62
2023/03/03 11:28:12;;;;;;;62.23;32.40;;;;;;;5.37;76.96;99119.63;4963843;28;20261;-62
2023/03/03 11:30:52;;;;;;;61.30;33.13;;;;;;;5.56;74.93;99114.00;4958859;28;20226;-62
2023/03/03 11:33:22;;;;;;;67.60;32.73;;;;;;;5.61;73.83;99109.31;4960891;28;20240;-62
2023/03/03 11:35:55;;;;;;;59.23;31.77;;;;;;;5.69;72.49;99103.63;4954611;28;23720;-62